createdAt,value
2019-03-08T00:00:05.984Z,85.30
2019-03-08T00:02:34.404Z,85.30
2019-03-08T00:05:02.789Z,85.90
2019-03-08T00:07:31.186Z,84.80
2019-03-08T00:09:59.601Z,84.70
2019-03-08T00:12:27.995Z,84.10
2019-03-08T00:14:56.396Z,82.50
2019-03-08T00:17:25.076Z,82.70
2019-03-08T00:19:53.474Z,82.50
2019-03-08T00:22:21.869Z,82.10
2019-03-08T00:24:50.280Z,82.70
2019-03-08T00:27:18.687Z,82.30
2019-03-08T00:29:47.080Z,82.30
2019-03-08T00:32:15.488Z,82.10
2019-03-08T00:34:43.904Z,82.10
2019-03-08T00:37:12.497Z,82.10
2019-03-08T00:39:40.929Z,82.00
2019-03-08T00:42:09.322Z,82.50
2019-03-08T00:44:37.737Z,82.50
2019-03-08T00:47:06.137Z,83.00
2019-03-08T00:49:34.564Z,83.40
2019-03-08T00:52:02.958Z,84.40
2019-03-08T00:54:31.528Z,83.50
2019-03-08T00:56:59.917Z,84.10
2019-03-08T00:59:28.304Z,84.30
2019-03-08T01:01:56.732Z,84.20
2019-03-08T01:04:25.120Z,85.10
2019-03-08T01:06:53.519Z,83.90
2019-03-08T01:09:22.257Z,84.10
2019-03-08T01:11:50.668Z,83.60
2019-03-08T01:14:19.071Z,83.70
2019-03-08T01:16:47.602Z,84.10
2019-03-08T01:19:16.001Z,84.30
2019-03-08T01:21:44.386Z,83.80
2019-03-08T01:24:13.381Z,83.60
2019-03-08T01:26:41.773Z,84.80
2019-03-08T01:29:10.161Z,83.60
2019-03-08T01:31:38.596Z,83.90
2019-03-08T01:34:07.701Z,84.40
2019-03-08T01:36:36.191Z,84.20
2019-03-08T01:39:06.833Z,84.10
2019-03-08T01:41:35.302Z,84.00
2019-03-08T01:44:03.969Z,84.80
2019-03-08T01:46:32.358Z,84.40
2019-03-08T01:49:00.757Z,84.80
2019-03-08T01:51:29.181Z,84.90
2019-03-08T01:53:57.609Z,84.80
2019-03-08T01:56:26.002Z,85.00
2019-03-08T01:58:54.397Z,85.10
2019-03-08T02:01:22.821Z,85.20
2019-03-08T02:03:51.222Z,86.10
2019-03-08T02:06:19.851Z,85.60
2019-03-08T02:08:48.285Z,85.90
2019-03-08T02:11:16.676Z,85.60
2019-03-08T02:13:45.160Z,86.30
2019-03-08T02:16:13.939Z,86.80
2019-03-08T02:18:42.341Z,87.00
2019-03-08T02:21:10.743Z,87.00
2019-03-08T02:23:39.169Z,87.10
2019-03-08T02:26:07.585Z,87.60
2019-03-08T02:28:35.978Z,87.90
2019-03-08T02:31:04.413Z,88.30
2019-03-08T02:33:32.807Z,88.50
2019-03-08T02:36:01.193Z,88.70
2019-03-08T02:38:29.604Z,88.80
2019-03-08T02:40:58.027Z,89.30
2019-03-08T02:43:26.430Z,89.50
2019-03-08T02:45:54.823Z,89.90
2019-03-08T02:48:23.236Z,89.60
2019-03-08T02:50:51.630Z,89.50
2019-03-08T02:53:20.329Z,89.80
2019-03-08T02:55:48.738Z,89.50
2019-03-08T02:58:17.129Z,89.50
2019-03-08T03:00:45.897Z,89.50
2019-03-08T03:03:14.359Z,89.80
2019-03-08T03:05:42.753Z,89.50
2019-03-08T03:08:11.189Z,89.40
2019-03-08T03:10:39.589Z,89.30
2019-03-08T03:13:07.982Z,89.10
2019-03-08T03:15:36.409Z,89.10
2019-03-08T03:18:04.881Z,89.40
2019-03-08T03:20:33.341Z,88.90
2019-03-08T03:23:01.760Z,89.00
2019-03-08T03:25:30.181Z,89.00
2019-03-08T03:27:58.584Z,88.80
2019-03-08T03:30:26.980Z,89.50
2019-03-08T03:32:55.390Z,89.50
2019-03-08T03:35:23.785Z,89.40
2019-03-08T03:37:52.225Z,89.30
2019-03-08T03:40:20.787Z,89.70
2019-03-08T03:42:49.183Z,89.10
2019-03-08T03:45:19.867Z,90.10
2019-03-08T03:47:48.266Z,89.70
2019-03-08T03:50:18.457Z,90.00
2019-03-08T03:52:46.969Z,89.80
2019-03-08T03:55:16.832Z,90.10
2019-03-08T03:57:45.365Z,90.00
2019-03-08T04:00:18.979Z,90.10
2019-03-08T04:02:47.397Z,90.30
2019-03-08T04:05:15.971Z,90.30
2019-03-08T04:07:44.361Z,90.10
2019-03-08T04:10:14.741Z,90.30
2019-03-08T04:12:43.271Z,90.30
2019-03-08T04:15:14.474Z,90.30
2019-03-08T04:17:42.942Z,90.40
2019-03-08T04:20:13.882Z,90.40
2019-03-08T04:22:42.378Z,90.40
2019-03-08T04:25:12.016Z,90.50
2019-03-08T04:27:41.818Z,90.40
2019-03-08T04:30:21.877Z,90.60
2019-03-08T04:32:50.277Z,90.70
2019-03-08T04:35:18.690Z,90.80
2019-03-08T04:37:47.274Z,90.90
2019-03-08T04:40:15.864Z,91.00
2019-03-08T04:42:44.295Z,91.00
2019-03-08T04:45:14.714Z,91.10
2019-03-08T04:47:43.109Z,91.70
2019-03-08T04:50:17.455Z,91.50
2019-03-08T04:52:45.878Z,91.40
2019-03-08T04:55:19.221Z,91.70
2019-03-08T04:57:47.935Z,91.70
2019-03-08T05:00:19.961Z,91.90
2019-03-08T05:02:48.358Z,92.00
2019-03-08T05:05:16.757Z,92.30
2019-03-08T05:07:45.203Z,92.10
2019-03-08T05:10:18.908Z,92.10
2019-03-08T05:12:47.352Z,92.10
2019-03-08T05:15:16.109Z,92.20
2019-03-08T05:17:44.497Z,92.40
2019-03-08T05:20:12.993Z,92.50
2019-03-08T05:22:41.396Z,92.60
2019-03-08T05:25:11.733Z,93.10
2019-03-08T05:27:40.171Z,93.40
2019-03-08T05:30:16.582Z,93.90
2019-03-08T05:32:45.056Z,94.00
2019-03-08T05:35:14.522Z,94.40
2019-03-08T05:37:43.398Z,94.30
2019-03-08T05:40:13.272Z,94.80
2019-03-08T05:42:41.672Z,95.40
2019-03-08T05:45:11.397Z,95.20
2019-03-08T05:47:40.207Z,95.90
2019-03-08T05:50:12.513Z,96.30
2019-03-08T05:52:41.564Z,96.90
2019-03-08T05:55:10.936Z,97.40
2019-03-08T05:57:39.336Z,97.60
2019-03-08T06:00:17.042Z,98.40
2019-03-08T06:02:45.510Z,99.60
2019-03-08T06:05:13.909Z,99.90
2019-03-08T06:07:42.352Z,99.90
2019-03-08T06:10:13.829Z,99.90
2019-03-08T06:12:42.260Z,99.90
2019-03-08T06:15:10.657Z,99.90
2019-03-08T06:17:39.058Z,99.90
2019-03-08T06:20:07.723Z,99.90
2019-03-08T06:22:36.122Z,99.90
2019-03-08T06:25:05.980Z,99.90
2019-03-08T06:27:34.405Z,99.90
2019-03-08T06:30:02.810Z,99.90
2019-03-08T06:32:31.225Z,99.90
2019-03-08T06:34:59.642Z,99.90
2019-03-08T06:37:28.361Z,99.90
2019-03-08T06:39:56.776Z,99.90
2019-03-08T06:42:25.182Z,99.90
2019-03-08T06:44:53.607Z,99.90
2019-03-08T06:47:22.046Z,99.90
2019-03-08T06:49:50.443Z,99.90
2019-03-08T06:52:19.149Z,99.90
2019-03-08T06:54:47.558Z,99.90
2019-03-08T06:57:15.961Z,99.90
2019-03-08T06:59:46.019Z,99.90
2019-03-08T07:02:15.500Z,99.90
2019-03-08T07:04:43.902Z,99.90
2019-03-08T07:07:13.050Z,99.90
2019-03-08T07:09:41.516Z,99.90
2019-03-08T07:12:10.116Z,99.90
2019-03-08T07:14:38.518Z,99.90
2019-03-08T07:17:06.910Z,99.90
2019-03-08T07:19:40.753Z,99.90
2019-03-08T07:22:09.497Z,99.90
2019-03-08T07:24:45.298Z,99.90
2019-03-08T07:27:18.279Z,99.90
2019-03-08T07:29:50.879Z,99.90
2019-03-08T07:32:20.936Z,99.90
2019-03-08T07:34:56.857Z,99.90
2019-03-08T07:37:29.585Z,99.90
2019-03-08T07:40:05.307Z,99.90
2019-03-08T07:42:35.695Z,99.90
2019-03-08T07:45:17.654Z,99.90
2019-03-08T07:47:56.564Z,99.90
2019-03-08T07:50:44.643Z,99.90
2019-03-08T07:53:26.638Z,99.90
2019-03-08T07:56:06.344Z,99.90
2019-03-08T07:58:39.702Z,99.90
2019-03-08T08:01:10.126Z,99.90
2019-03-08T08:03:46.125Z,99.90
2019-03-08T08:06:19.125Z,99.90
2019-03-08T08:08:54.862Z,99.90
2019-03-08T08:11:27.653Z,99.90
2019-03-08T08:14:14.065Z,99.90
2019-03-08T08:16:46.773Z,99.90
2019-03-08T08:19:17.082Z,99.90
2019-03-08T08:22:03.875Z,99.90
2019-03-08T08:24:42.888Z,99.90
2019-03-08T08:27:13.626Z,99.90
2019-03-08T08:29:43.722Z,99.90
2019-03-08T08:32:30.366Z,99.90
2019-03-08T08:35:06.530Z,99.90
2019-03-08T08:37:39.215Z,99.90
2019-03-08T08:40:29.302Z,99.90
2019-03-08T08:43:15.602Z,99.90
2019-03-08T08:45:51.223Z,99.90
2019-03-08T08:48:21.303Z,99.90
2019-03-08T08:50:54.006Z,99.90
2019-03-08T08:53:30.277Z,99.90
2019-03-08T08:56:16.850Z,99.90
2019-03-08T08:59:03.453Z,99.90
2019-03-08T09:01:39.986Z,99.90
2019-03-08T09:04:12.760Z,99.90
2019-03-08T09:06:45.431Z,99.90
2019-03-08T09:09:21.325Z,99.90
2019-03-08T09:12:00.523Z,99.90
2019-03-08T09:14:39.682Z,99.90
2019-03-08T09:17:09.790Z,99.90
2019-03-08T09:19:54.892Z,99.90
2019-03-08T09:22:24.934Z,99.90
2019-03-08T09:24:54.982Z,99.70
2019-03-08T09:27:37.197Z,99.10
2019-03-08T09:30:10.813Z,99.10
2019-03-08T09:32:58.711Z,98.30
2019-03-08T09:35:21.222Z,98.50
2019-03-08T09:38:00.064Z,98.70
2019-03-08T09:40:39.170Z,97.60
2019-03-08T09:43:15.270Z,97.50
2019-03-08T09:46:00.059Z,97.80
2019-03-08T09:48:48.630Z,98.80
2019-03-08T09:51:28.802Z,98.50
2019-03-08T09:54:01.463Z,98.80
2019-03-08T09:56:40.458Z,97.90
2019-03-08T09:59:22.802Z,97.70
2019-03-08T10:02:04.832Z,97.00
2019-03-08T10:04:34.918Z,98.60
2019-03-08T10:07:20.990Z,96.60
2019-03-08T10:09:54.002Z,96.50
2019-03-08T10:12:24.442Z,95.70
2019-03-08T10:14:54.481Z,95.50
2019-03-08T10:17:30.467Z,93.60
2019-03-08T10:20:17.498Z,90.70
2019-03-08T10:22:56.459Z,91.00
2019-03-08T10:25:32.709Z,89.80
2019-03-08T10:28:02.759Z,87.70
2019-03-08T10:30:35.750Z,88.30
2019-03-08T10:33:10.192Z,89.00
2019-03-08T10:35:40.358Z,87.30
2019-03-08T10:38:22.706Z,85.10
2019-03-08T10:40:54.362Z,83.70
2019-03-08T10:43:24.428Z,83.70
2019-03-08T10:45:54.541Z,81.70
2019-03-08T10:48:42.906Z,80.80
2019-03-08T10:51:15.734Z,81.00
2019-03-08T10:54:00.892Z,79.70
2019-03-08T10:56:32.526Z,76.50
2019-03-08T10:59:02.568Z,78.50
2019-03-08T11:01:32.910Z,76.10
2019-03-08T11:04:08.975Z,74.40
2019-03-08T11:06:55.778Z,72.80
2019-03-08T11:09:40.886Z,71.70
2019-03-08T11:12:11.299Z,70.10
2019-03-08T11:14:47.398Z,71.80
2019-03-08T11:17:20.365Z,72.80
2019-03-08T11:20:07.326Z,73.80
2019-03-08T11:22:40.113Z,72.40
2019-03-08T11:25:17.098Z,73.20
2019-03-08T11:27:59.326Z,71.70
2019-03-08T11:30:29.680Z,71.80
2019-03-08T11:33:02.653Z,69.50
2019-03-08T11:35:32.694Z,68.30
2019-03-08T11:38:11.428Z,69.30
2019-03-08T11:40:41.491Z,70.10
2019-03-08T11:43:23.414Z,70.20
2019-03-08T11:45:53.677Z,72.00
2019-03-08T11:48:39.087Z,73.00
2019-03-08T11:51:15.168Z,74.50
2019-03-08T11:53:45.257Z,75.80
2019-03-08T11:56:35.020Z,76.90
2019-03-08T11:59:05.189Z,77.80
2019-03-08T12:01:41.350Z,76.50
2019-03-08T12:04:11.404Z,76.00
2019-03-08T12:06:41.441Z,72.70
2019-03-08T12:09:21.642Z,71.90
2019-03-08T12:11:54.408Z,72.00
2019-03-08T12:14:24.441Z,70.80
2019-03-08T12:17:04.038Z,69.70
2019-03-08T12:19:45.749Z,67.20
2019-03-08T12:22:15.821Z,63.90
2019-03-08T12:24:45.861Z,59.70
2019-03-08T12:27:31.970Z,59.80
2019-03-08T12:30:15.794Z,57.90
2019-03-08T12:32:52.019Z,58.70
2019-03-08T12:35:38.551Z,59.40
2019-03-08T12:38:09.248Z,59.70
2019-03-08T12:40:42.054Z,61.90
2019-03-08T12:43:21.931Z,61.90
2019-03-08T12:45:54.755Z,64.40
2019-03-08T12:48:42.929Z,63.50
2019-03-08T12:51:15.454Z,64.10
2019-03-08T12:53:45.498Z,63.20
2019-03-08T12:56:15.569Z,58.10
2019-03-08T12:58:48.265Z,57.50
2019-03-08T13:01:18.302Z,58.80
2019-03-08T13:03:48.386Z,54.50
2019-03-08T13:06:18.506Z,55.30
2019-03-08T13:08:54.374Z,54.70
2019-03-08T13:11:22.818Z,57.00
2019-03-08T13:13:51.498Z,59.00
2019-03-08T13:16:20.020Z,59.00
2019-03-08T13:18:48.469Z,55.40
2019-03-08T13:21:16.876Z,52.10
2019-03-08T13:23:45.335Z,51.50
2019-03-08T13:26:13.760Z,48.50
2019-03-08T13:28:42.566Z,47.60
2019-03-08T13:31:10.961Z,49.00
2019-03-08T13:33:39.398Z,48.60
2019-03-08T13:36:07.967Z,49.40
2019-03-08T13:38:36.374Z,51.00
2019-03-08T13:41:05.130Z,55.10
2019-03-08T13:43:33.537Z,55.80
2019-03-08T13:46:01.937Z,58.20
2019-03-08T13:48:30.383Z,59.50
2019-03-08T13:50:58.791Z,60.70
2019-03-08T13:53:27.186Z,61.70
2019-03-08T13:55:55.638Z,62.30
2019-03-08T13:58:24.033Z,63.90
2019-03-08T14:01:02.530Z,61.30
2019-03-08T14:03:30.965Z,59.30
2019-03-08T14:05:59.374Z,57.80
2019-03-08T14:08:27.809Z,55.90
2019-03-08T14:10:56.219Z,53.10
2019-03-08T14:13:24.731Z,51.80
2019-03-08T14:15:53.307Z,53.60
2019-03-08T14:18:21.709Z,55.00
2019-03-08T14:20:50.216Z,55.50
2019-03-08T14:23:18.927Z,53.90
2019-03-08T14:25:47.419Z,52.40
2019-03-08T14:28:15.879Z,49.70
2019-03-08T14:30:57.526Z,47.70
2019-03-08T14:33:19.510Z,48.30
2019-03-08T14:35:47.979Z,47.90
2019-03-08T14:38:16.508Z,46.50
2019-03-08T14:40:46.665Z,46.00
2019-03-08T14:43:25.712Z,48.00
2019-03-08T14:46:01.809Z,47.60
2019-03-08T14:48:30.209Z,46.40
2019-03-08T14:50:58.938Z,48.10
2019-03-08T14:53:28.517Z,51.60
2019-03-08T14:55:59.052Z,53.50
2019-03-08T14:58:27.710Z,55.20
2019-03-08T15:00:56.109Z,56.80
2019-03-08T15:03:24.841Z,58.50
2019-03-08T15:05:54.785Z,58.60
2019-03-08T15:08:23.621Z,59.60
2019-03-08T15:10:52.022Z,57.10
2019-03-08T15:13:23.973Z,55.30
2019-03-08T15:15:50.707Z,51.30
2019-03-08T15:18:19.105Z,48.30
2019-03-08T15:20:47.569Z,45.80
2019-03-08T15:23:17.227Z,44.30
2019-03-08T15:25:48.955Z,45.20
2019-03-08T15:28:16.337Z,47.60
2019-03-08T15:30:45.073Z,51.00
2019-03-08T15:33:13.469Z,53.40
2019-03-08T15:35:42.449Z,51.80
2019-03-08T15:38:10.857Z,49.50
2019-03-08T15:40:39.268Z,46.40
2019-03-08T15:43:09.633Z,47.10
2019-03-08T15:45:39.969Z,48.40
2019-03-08T15:48:10.873Z,51.00
2019-03-08T15:50:38.201Z,54.80
2019-03-08T15:53:06.674Z,57.90
2019-03-08T15:55:35.091Z,60.40
2019-03-08T15:58:03.598Z,61.40
2019-03-08T16:00:32.078Z,62.40
2019-03-08T16:03:00.527Z,63.40
2019-03-08T16:05:30.123Z,65.30
2019-03-08T16:08:01.861Z,67.00
2019-03-08T16:10:28.762Z,66.90
2019-03-08T16:12:57.198Z,66.60
2019-03-08T16:15:25.630Z,67.80
2019-03-08T16:17:54.081Z,68.30
2019-03-08T16:20:22.890Z,68.70
2019-03-08T16:22:51.325Z,69.40
2019-03-08T16:25:19.770Z,69.50
2019-03-08T16:27:48.215Z,70.40
2019-03-08T16:30:32.777Z,70.30
2019-03-08T16:33:08.879Z,70.50
2019-03-08T16:35:41.617Z,72.30
2019-03-08T16:38:23.341Z,73.30
2019-03-08T16:40:53.213Z,74.70
2019-03-08T16:43:23.313Z,74.90
2019-03-08T16:45:54.937Z,77.10
2019-03-08T16:48:27.421Z,83.90
2019-03-08T16:51:06.325Z,88.50
2019-03-08T16:53:42.075Z,91.20
2019-03-08T16:56:14.850Z,93.60
2019-03-08T16:58:53.963Z,94.10
2019-03-08T17:01:24.303Z,96.10
2019-03-08T17:04:06.598Z,95.40
2019-03-08T17:06:54.879Z,96.80
2019-03-08T17:09:24.985Z,97.20
2019-03-08T17:11:55.022Z,97.80
2019-03-08T17:14:25.127Z,97.40
2019-03-08T17:17:01.402Z,97.30
2019-03-08T17:19:31.718Z,97.50
2019-03-08T17:22:01.753Z,97.40
2019-03-08T17:24:48.315Z,97.70
2019-03-08T17:27:18.349Z,98.00
2019-03-08T17:29:51.167Z,98.00
2019-03-08T17:32:23.847Z,98.30
2019-03-08T17:35:05.846Z,97.60
2019-03-08T17:37:44.665Z,98.40
2019-03-08T17:40:17.264Z,97.80
2019-03-08T17:42:52.842Z,98.60
2019-03-08T17:45:25.655Z,98.20
2019-03-08T17:47:58.803Z,98.00
2019-03-08T17:50:31.853Z,97.80
2019-03-08T17:53:14.218Z,98.20
2019-03-08T17:55:53.376Z,97.90
2019-03-08T17:58:26.154Z,97.50
2019-03-08T18:01:12.589Z,96.90
2019-03-08T18:03:48.582Z,95.90
2019-03-08T18:06:24.713Z,96.60
2019-03-08T18:08:55.033Z,96.20
2019-03-08T18:11:26.969Z,96.20
2019-03-08T18:13:56.881Z,96.20
2019-03-08T18:16:26.986Z,96.10
2019-03-08T18:19:05.826Z,95.80
2019-03-08T18:21:38.546Z,95.80
2019-03-08T18:24:23.860Z,95.50
2019-03-08T18:26:56.166Z,95.10
2019-03-08T18:29:26.206Z,94.30
2019-03-08T18:31:59.053Z,94.40
2019-03-08T18:34:31.854Z,94.50
2019-03-08T18:37:01.901Z,94.30
2019-03-08T18:39:37.893Z,94.10
2019-03-08T18:42:10.673Z,94.20
2019-03-08T18:44:40.706Z,94.00
2019-03-08T18:47:13.451Z,94.20
2019-03-08T18:49:49.283Z,94.30
2019-03-08T18:52:35.543Z,94.30
2019-03-08T18:55:18.839Z,94.10
2019-03-08T18:57:51.321Z,94.20
2019-03-08T19:00:30.238Z,94.10
2019-03-08T19:03:09.550Z,94.30
2019-03-08T19:05:39.603Z,94.10
2019-03-08T19:08:21.514Z,94.10
2019-03-08T19:11:00.609Z,94.00
2019-03-08T19:13:36.630Z,93.90
2019-03-08T19:16:16.171Z,93.80
2019-03-08T19:18:49.111Z,94.10
2019-03-08T19:21:25.337Z,94.30
2019-03-08T19:24:04.607Z,94.50
2019-03-08T19:26:34.678Z,94.20
2019-03-08T19:29:04.795Z,94.20
2019-03-08T19:31:52.894Z,94.50
2019-03-08T19:34:25.534Z,94.60
2019-03-08T19:37:11.774Z,94.60
2019-03-08T19:39:41.814Z,94.60
2019-03-08T19:42:27.233Z,94.50
2019-03-08T19:44:57.266Z,94.80
2019-03-08T19:47:42.290Z,94.70
2019-03-08T19:50:18.177Z,94.70
2019-03-08T19:53:00.241Z,94.50
2019-03-08T19:55:33.153Z,94.60
2019-03-08T19:58:12.390Z,94.60
2019-03-08T20:00:54.571Z,94.40
2019-03-08T20:03:27.321Z,94.20
2019-03-08T20:06:03.735Z,94.20
2019-03-08T20:08:50.400Z,94.20
2019-03-08T20:11:23.145Z,94.30
2019-03-08T20:14:02.832Z,94.30
2019-03-08T20:16:33.032Z,94.30
2019-03-08T20:19:19.541Z,94.40
2019-03-08T20:21:58.945Z,94.50
2019-03-08T20:24:28.985Z,94.50
2019-03-08T20:27:04.974Z,94.40
2019-03-08T20:29:40.925Z,94.40
2019-03-08T20:32:16.881Z,94.30
2019-03-08T20:34:53.089Z,94.30
2019-03-08T20:37:23.243Z,94.30
2019-03-08T20:40:02.418Z,94.40
2019-03-08T20:42:47.846Z,94.30
2019-03-08T20:45:17.887Z,94.50
2019-03-08T20:47:46.562Z,94.50
2019-03-08T20:50:15.008Z,94.70
2019-03-08T20:52:43.409Z,94.90
2019-03-08T20:55:11.983Z,94.90
2019-03-08T20:57:40.430Z,94.70
2019-03-08T21:00:12.369Z,94.80
2019-03-08T21:02:40.883Z,94.60
2019-03-08T21:05:09.931Z,94.90
2019-03-08T21:07:38.322Z,94.50
2019-03-08T21:10:10.754Z,94.80
2019-03-08T21:12:39.149Z,94.50
2019-03-08T21:15:14.658Z,94.60
2019-03-08T21:17:43.165Z,94.40
2019-03-08T21:20:12.707Z,94.30
2019-03-08T21:22:41.174Z,94.30
2019-03-08T21:25:12.323Z,94.10
2019-03-08T21:27:40.714Z,94.10
2019-03-08T21:30:19.607Z,94.10
2019-03-08T21:32:48.005Z,94.00
2019-03-08T21:35:16.449Z,94.10
2019-03-08T21:37:45.229Z,94.10
2019-03-08T21:40:14.464Z,94.10
2019-03-08T21:42:42.908Z,94.10
2019-03-08T21:45:15.826Z,94.10
2019-03-08T21:47:44.222Z,94.00
2019-03-08T21:50:17.820Z,93.90
2019-03-08T21:52:46.212Z,93.70
2019-03-08T21:55:14.648Z,93.60
2019-03-08T21:57:43.082Z,93.50
2019-03-08T22:00:14.895Z,93.40
2019-03-08T22:02:43.570Z,93.30
2019-03-08T22:05:12.731Z,93.10
2019-03-08T22:07:41.121Z,93.00
2019-03-08T22:10:16.361Z,92.90
2019-03-08T22:12:44.800Z,92.80
2019-03-08T22:15:13.745Z,92.70
2019-03-08T22:17:42.203Z,92.60
2019-03-08T22:20:10.993Z,92.40
2019-03-08T22:22:39.455Z,92.30
2019-03-08T22:25:10.138Z,92.40
2019-03-08T22:27:38.847Z,92.00
2019-03-08T22:30:13.389Z,92.00
2019-03-08T22:32:41.822Z,92.20
2019-03-08T22:35:10.224Z,91.70
2019-03-08T22:37:38.651Z,91.50
2019-03-08T22:40:08.992Z,91.40
2019-03-08T22:42:37.415Z,91.20
2019-03-08T22:45:11.002Z,91.00
2019-03-08T22:47:39.424Z,90.90
2019-03-08T22:50:12.722Z,90.90
2019-03-08T22:52:41.186Z,90.70
2019-03-08T22:55:12.187Z,90.80
2019-03-08T22:57:40.591Z,90.60
2019-03-08T23:00:14.577Z,90.50
2019-03-08T23:02:42.987Z,90.50
2019-03-08T23:05:11.422Z,90.30
2019-03-08T23:07:39.809Z,90.30
2019-03-08T23:10:11.790Z,90.40
2019-03-08T23:12:40.962Z,90.30
2019-03-08T23:15:09.630Z,90.30
2019-03-08T23:17:38.026Z,90.30
2019-03-08T23:20:08.490Z,90.30
2019-03-08T23:22:36.879Z,90.30
2019-03-08T23:25:05.799Z,90.30
2019-03-08T23:27:44.590Z,90.10
2019-03-08T23:30:14.760Z,90.30
2019-03-08T23:32:44.317Z,90.00
2019-03-08T23:35:12.734Z,90.10
2019-03-08T23:37:41.140Z,90.00
2019-03-08T23:40:10.325Z,89.80
2019-03-08T23:42:38.722Z,89.90
2019-03-08T23:45:08.988Z,89.90
2019-03-08T23:47:37.406Z,89.90
2019-03-08T23:50:08.351Z,89.90
2019-03-08T23:52:36.777Z,89.70
2019-03-08T23:55:08.409Z,89.80
2019-03-08T23:57:36.801Z,90.00
